Time;durP1;ratioP1;P1;durP2;ratioP2;P2;SDS_P1;SDS_P2;PMS_P1;PMS_P2;Temp;Humidity;BMP_temperature;BMP_pressure;BME280_temperature;BME280_humidity;BME280_pressure;Samples;Min_cycle;Max_cycle;Signal;HPM_P1;HPM_P2
2022/10/31 00:00:55;;;;;;;5.63;4.90;;;20.30;62.90;21.30;101258.00;;;;5010608;28;20257;-47
2022/10/31 00:03:21;;;;;;;7.40;5.00;;;20.30;62.90;21.30;101234.00;;;;5010361;28;20298;-46
2022/10/31 00:05:48;;;;;;;7.07;5.10;;;20.30;63.00;21.20;101253.00;;;;5009635;28;20305;-47
2022/10/31 00:08:14;;;;;;;6.60;5.20;;;20.30;63.00;21.20;101257.00;;;;5010558;28;20190;-47
2022/10/31 00:10:41;;;;;;;5.30;4.80;;;20.30;63.00;21.20;101267.00;;;;5009188;28;20202;-45
2022/10/31 00:13:07;;;;;;;7.23;4.93;;;20.20;62.90;21.20;101252.00;;;;5009004;28;20199;-46
2022/10/31 00:15:37;;;;;;;5.53;4.83;;;20.20;63.00;21.20;101258.00;;;;5010366;28;20168;-46
2022/10/31 00:18:03;;;;;;;5.30;4.47;;;20.20;63.00;21.20;101262.00;;;;5010452;28;20168;-45
2022/10/31 00:20:30;;;;;;;6.93;5.00;;;20.20;63.00;21.20;101251.00;;;;5009183;28;20226;-46
2022/10/31 00:23:02;;;;;;;5.93;5.33;;;20.20;63.00;21.10;101255.00;;;;5009537;28;20230;-47
2022/10/31 00:25:28;;;;;;;7.73;4.70;;;20.20;63.00;21.10;101259.00;;;;5008787;28;20175;-48
2022/10/31 00:27:54;;;;;;;6.63;4.90;;;20.20;63.10;21.10;101247.00;;;;5009725;28;20292;-47
2022/10/31 00:30:20;;;;;;;5.83;4.80;;;20.10;63.00;21.10;101260.00;;;;5008825;28;20203;-47
2022/10/31 00:32:46;;;;;;;9.10;4.97;;;20.10;63.00;20.80;101263.00;;;;5010151;28;20200;-46
2022/10/31 00:35:11;;;;;;;6.10;4.77;;;20.10;63.10;21.10;101257.00;;;;5009905;28;20182;-47
2022/10/31 00:37:37;;;;;;;5.87;4.50;;;20.10;63.00;21.10;101255.00;;;;5008865;28;20178;-47
2022/10/31 00:40:03;;;;;;;6.10;4.70;;;20.10;63.00;21.10;101240.00;;;;5009881;28;20182;-46
2022/10/31 00:42:29;;;;;;;4.90;4.40;;;20.10;63.10;21.00;101256.00;;;;5009458;28;20210;-46
2022/10/31 00:44:55;;;;;;;5.00;4.50;;;20.10;63.20;21.00;101248.00;;;;5010057;28;20283;-46
2022/10/31 00:47:20;;;;;;;6.27;4.97;;;20.00;63.00;21.00;101247.00;;;;5010703;28;20288;-47
2022/10/31 00:49:46;;;;;;;8.80;4.70;;;20.00;63.10;21.00;101262.00;;;;5010210;28;20218;-46
2022/10/31 00:52:12;;;;;;;6.60;5.20;;;20.00;63.00;21.00;101272.00;;;;5009407;28;20236;-46
2022/10/31 00:54:37;;;;;;;5.87;4.70;;;19.90;63.00;21.00;101264.00;;;;5009807;28;20268;-46
2022/10/31 00:57:03;;;;;;;6.60;4.53;;;19.90;63.10;21.00;101265.00;;;;5009465;28;20627;-45
2022/10/31 00:59:29;;;;;;;5.00;4.50;;;19.90;63.20;20.90;101282.00;;;;5009572;28;20171;-47
2022/10/31 01:01:54;;;;;;;7.10;4.83;;;19.90;63.30;20.90;101271.00;;;;5009259;28;20298;-47
2022/10/31 01:04:20;;;;;;;6.63;5.20;;;19.80;63.20;20.90;101291.00;;;;5009498;28;20246;-46
2022/10/31 01:06:46;;;;;;;5.53;4.40;;;19.90;63.30;20.90;101294.00;;;;5009385;28;20208;-46
2022/10/31 01:09:12;;;;;;;6.83;4.80;;;19.90;63.20;20.90;101290.00;;;;5009374;28;20181;-46
2022/10/31 01:11:37;;;;;;;6.07;4.37;;;19.90;63.20;20.90;101306.00;;;;5009056;28;20301;-47
2022/10/31 01:14:03;;;;;;;6.93;4.40;;;19.90;63.30;20.80;101299.00;;;;5009065;28;20178;-47
2022/10/31 01:16:31;;;;;;;9.60;5.07;;;19.80;63.10;20.80;101287.00;;;;5009380;28;20184;-46
2022/10/31 01:18:57;;;;;;;5.63;4.60;;;19.80;63.10;20.80;101298.00;;;;5009367;28;20212;-46
2022/10/31 01:21:25;;;;;;;5.97;4.87;;;19.80;63.20;20.80;101301.00;;;;5009117;28;20783;-46
2022/10/31 01:23:53;;;;;;;5.53;4.40;;;19.80;63.20;20.80;101278.00;;;;5007806;28;20234;-46
2022/10/31 01:26:24;;;;;;;7.27;5.23;;;19.80;63.20;20.80;101267.00;;;;5009126;28;20196;-48
2022/10/31 01:28:58;;;;;;;5.90;4.80;;;19.80;63.20;20.80;101270.00;;;;5008905;28;20198;-46
2022/10/31 01:31:27;;;;;;;6.20;5.00;;;19.80;64.10;20.80;101264.00;;;;5009113;28;20610;-47
2022/10/31 01:33:53;;;;;;;7.37;4.70;;;19.70;63.20;20.80;101262.00;;;;5009269;28;20172;-47
2022/10/31 01:36:25;;;;;;;6.33;4.60;;;19.70;63.50;20.80;101256.00;;;;5009172;28;20182;-45
2022/10/31 01:38:52;;;;;;;7.20;4.63;;;19.70;63.30;20.70;101243.00;;;;5009190;28;20199;-46
2022/10/31 01:41:22;;;;;;;7.57;4.80;;;19.70;63.30;20.70;101248.00;;;;5007773;28;20676;-46
2022/10/31 01:44:02;;;;;;;6.73;4.60;;;19.70;63.40;20.70;101245.00;;;;5008866;28;20182;-46
2022/10/31 01:46:38;;;;;;;5.77;4.50;;;19.70;63.40;20.70;101244.00;;;;5008757;28;20284;-47
2022/10/31 01:49:11;;;;;;;6.17;4.53;;;19.80;63.60;20.70;101226.00;;;;4990992;28;20284;-46
2022/10/31 01:51:44;;;;;;;6.27;4.93;;;19.80;63.50;20.70;101154.00;;;;4991590;28;20196;-47
2022/10/31 01:54:12;;;;;;;5.10;4.33;;;19.70;63.60;20.70;101235.00;;;;5008591;28;20193;-47
2022/10/31 01:56:40;;;;;;;8.10;5.20;;;19.80;63.60;20.70;101218.00;;;;4990535;28;20264;-47
2022/10/31 01:59:08;;;;;;;7.03;4.40;;;19.70;63.50;20.70;101226.00;;;;4990821;28;20229;-47
2022/10/31 02:01:34;;;;;;;6.57;4.70;;;19.70;63.60;20.70;101217.00;;;;4974530;28;20220;-47
2022/10/31 02:04:00;;;;;;;7.53;4.70;;;19.70;63.50;20.70;101220.00;;;;4990968;28;20175;-47
2022/10/31 02:06:38;;;;;;;6.03;4.47;;;19.70;63.50;20.60;101221.00;;;;5008291;28;20180;-47
2022/10/31 02:09:05;;;;;;;5.20;4.40;;;19.70;63.50;20.60;101227.00;;;;5008102;28;20217;-47
2022/10/31 02:11:30;;;;;;;5.80;4.60;;;19.70;63.60;20.60;101211.00;;;;5006820;28;20243;-47
2022/10/31 02:13:56;;;;;;;5.90;4.53;;;19.70;63.60;20.60;101210.00;;;;5008672;28;20701;-46
2022/10/31 02:16:22;;;;;;;6.53;4.40;;;19.60;63.50;20.60;101221.00;;;;4990483;28;20205;-47
2022/10/31 02:18:47;;;;;;;6.03;4.40;;;19.70;63.60;20.60;101217.00;;;;5008416;28;20176;-47
2022/10/31 02:21:44;;;;;;;5.40;4.70;;;19.70;63.70;20.50;101206.00;;;;5008225;28;20184;-46
2022/10/31 02:24:31;;;;;;;6.87;4.90;;;19.60;63.60;20.50;101217.00;;;;5007564;28;20543;-46
2022/10/31 02:27:18;;;;;;;5.87;4.50;;;19.60;63.60;20.50;101224.00;;;;5008296;28;20172;-47
2022/10/31 02:29:56;;;;;;;5.80;4.33;;;19.60;63.60;20.50;101226.00;;;;5007693;28;20177;-46
2022/10/31 02:32:41;;;;;;;6.17;4.77;;;19.60;63.60;20.50;101225.00;;;;4990645;28;20187;-47
2022/10/31 02:35:33;;;;;;;7.27;4.77;;;19.60;63.60;20.50;101233.00;;;;5006787;28;20162;-47
2022/10/31 02:38:04;;;;;;;4.87;4.30;;;19.50;63.50;20.50;101237.00;;;;5008773;28;20621;-47
2022/10/31 02:40:46;;;;;;;5.63;4.73;;;19.50;63.50;20.50;101247.00;;;;5006921;28;20163;-47
2022/10/31 02:43:34;;;;;;;6.13;4.50;;;19.50;63.70;20.50;101229.00;;;;4974990;28;20203;-46
2022/10/31 02:46:15;;;;;;;6.83;4.50;;;19.50;63.70;20.40;101246.00;;;;4990999;28;20254;-46
2022/10/31 02:48:41;;;;;;;5.87;4.33;;;19.50;63.70;20.40;101245.00;;;;4975007;28;20199;-47
2022/10/31 02:51:06;;;;;;;5.73;4.30;;;19.40;63.60;20.40;101245.00;;;;4990605;28;20203;-46
2022/10/31 02:53:33;;;;;;;5.63;4.70;;;19.40;63.70;20.40;101231.00;;;;4978029;28;20199;-46
2022/10/31 02:56:15;;;;;;;6.73;4.50;;;19.40;63.80;20.40;101240.00;;;;5011306;28;20187;-47
2022/10/31 02:59:01;;;;;;;5.17;4.60;;;19.30;63.70;20.40;101233.00;;;;5010964;28;20176;-47
2022/10/31 03:01:56;;;;;;;5.60;5.00;;;19.30;63.70;20.40;101242.00;;;;4993750;28;20269;-46
2022/10/31 03:04:46;;;;;;;7.53;4.33;;;19.30;63.70;20.30;101256.00;;;;4994818;28;20172;-47
2022/10/31 03:07:48;;;;;;;5.90;5.07;;;19.30;63.60;20.30;101248.00;;;;5010487;28;20199;-46
2022/10/31 03:10:32;;;;;;;6.77;5.03;;;19.30;63.70;20.30;101251.00;;;;5010746;28;20167;-46
2022/10/31 03:13:03;;;;;;;5.43;4.73;;;19.30;63.80;20.30;101242.00;;;;5011639;28;20237;-46
2022/10/31 03:15:39;;;;;;;5.97;5.10;;;19.20;63.80;20.30;101234.00;;;;5010886;28;20174;-47
2022/10/31 03:18:23;;;;;;;6.20;5.07;;;19.30;63.90;20.30;101249.00;;;;4994309;28;20203;-47
2022/10/31 03:21:04;;;;;;;6.70;4.67;;;19.20;63.70;20.30;101240.00;;;;4994297;28;20161;-47
2022/10/31 03:23:30;;;;;;;6.97;5.10;;;19.30;63.70;20.20;101234.00;;;;4978021;28;20160;-47
2022/10/31 03:25:56;;;;;;;7.73;4.57;;;19.30;63.70;20.20;101250.00;;;;4993896;28;20246;-47
2022/10/31 03:28:30;;;;;;;6.87;4.90;;;19.30;63.60;20.20;101250.00;;;;4977655;28;20207;-46
2022/10/31 03:30:56;;;;;;;6.53;4.90;;;19.30;63.60;20.20;101257.00;;;;4977765;28;21064;-46
2022/10/31 03:33:26;;;;;;;5.03;4.50;;;19.30;63.60;20.20;101243.00;;;;5009999;28;20279;-46
2022/10/31 03:35:52;;;;;;;5.43;4.90;;;19.20;63.60;20.20;101256.00;;;;4977713;28;20160;-46
2022/10/31 03:38:18;;;;;;;5.20;4.70;;;19.20;63.80;20.20;101239.00;;;;4993370;28;20179;-46
2022/10/31 03:40:44;;;;;;;7.23;5.00;;;19.20;63.80;20.20;101254.00;;;;5009826;28;20253;-47
2022/10/31 03:43:19;;;;;;;5.83;4.53;;;19.20;63.70;20.20;101240.00;;;;4993098;28;20521;-46
2022/10/31 03:45:46;;;;;;;6.10;4.70;;;19.20;63.60;20.20;101238.00;;;;4977531;28;20245;-46
2022/10/31 03:48:13;;;;;;;4.80;4.40;;;19.20;63.60;20.20;101243.00;;;;4993379;28;20196;-46
2022/10/31 03:50:49;;;;;;;5.30;4.80;;;19.20;63.50;20.10;101251.00;;;;4993789;28;20171;-46
2022/10/31 03:53:44;;;;;;;6.67;4.43;;;19.20;63.60;20.10;101249.00;;;;4993071;28;20770;-47
2022/10/31 03:56:40;;;;;;;5.33;4.67;;;19.20;63.60;20.10;101240.00;;;;4993165;28;20160;-46
2022/10/31 03:59:13;;;;;;;5.63;4.83;;;19.20;63.60;20.10;101246.00;;;;4990442;28;20718;-47
2022/10/31 04:01:42;;;;;;;5.30;4.80;;;19.20;63.60;20.10;101227.00;;;;4993070;28;20195;-47
2022/10/31 04:04:08;;;;;;;6.00;4.70;;;19.10;63.60;20.10;101237.00;;;;4992814;28;20180;-46
2022/10/31 04:06:34;;;;;;;5.57;4.77;;;19.20;63.70;20.10;101229.00;;;;5009525;28;20604;-46
2022/10/31 04:09:03;;;;;;;6.47;4.73;;;19.10;63.50;20.10;101236.00;;;;4976880;28;20204;-46
2022/10/31 04:11:31;;;;;;;6.10;4.70;;;19.10;63.60;20.10;101228.00;;;;4993004;28;20192;-47
2022/10/31 04:13:57;;;;;;;9.37;4.63;;;19.20;63.70;20.10;101236.00;;;;4993133;28;20762;-47
2022/10/31 04:16:23;;;;;;;5.23;4.70;;;19.10;63.50;20.10;101246.00;;;;4993078;28;20179;-47
2022/10/31 04:18:49;;;;;;;8.70;4.77;;;19.10;63.50;20.10;101258.00;;;;5009614;28;20180;-46
2022/10/31 04:21:14;;;;;;;5.20;4.70;;;19.00;64.40;20.10;101240.00;;;;4992909;28;20669;-47
2022/10/31 04:23:40;;;;;;;8.23;5.17;;;19.10;63.70;20.00;101237.00;;;;5010408;28;20629;-46
2022/10/31 04:26:06;;;;;;;5.43;4.73;;;19.10;63.70;20.00;101240.00;;;;5010572;28;20175;-45
2022/10/31 04:28:33;;;;;;;8.97;5.03;;;19.00;63.70;20.00;101235.00;;;;5010285;28;20315;-46
2022/10/31 04:30:59;;;;;;;7.57;4.90;;;19.00;63.90;20.00;101233.00;;;;5010405;28;20253;-47
2022/10/31 04:33:25;;;;;;;7.60;5.23;;;19.10;63.70;20.00;101233.00;;;;5008811;28;20193;-46
2022/10/31 04:35:50;;;;;;;9.17;5.30;;;19.10;63.70;20.00;101230.00;;;;5010354;28;20168;-46
2022/10/31 04:38:16;;;;;;;7.37;4.70;;;19.10;63.50;20.00;101221.00;;;;5010328;28;20549;-47
2022/10/31 04:40:42;;;;;;;7.80;4.50;;;19.10;63.60;20.00;101214.00;;;;5010263;28;20171;-47
2022/10/31 04:43:08;;;;;;;7.20;4.60;;;19.10;63.60;20.00;101222.00;;;;5009759;28;20200;-46
2022/10/31 04:45:33;;;;;;;9.87;4.70;;;19.00;63.60;20.00;101220.00;;;;5009876;28;20180;-46
2022/10/31 04:47:59;;;;;;;5.97;4.63;;;19.00;63.60;19.90;101221.00;;;;5011689;28;20210;-47
2022/10/31 04:50:25;;;;;;;6.47;5.00;;;19.00;63.60;19.70;101215.00;;;;5010599;28;20620;-47
2022/10/31 04:52:50;;;;;;;7.60;4.73;;;19.00;63.60;19.90;101215.00;;;;5010341;28;20562;-47
2022/10/31 04:55:16;;;;;;;6.40;4.50;;;19.00;63.60;19.90;101213.00;;;;5010941;28;20412;-46
2022/10/31 04:57:47;;;;;;;6.90;5.03;;;19.00;63.50;19.90;101206.00;;;;5010746;28;20179;-45
2022/10/31 05:00:14;;;;;;;6.87;4.73;;;19.00;63.60;19.90;101208.00;;;;5009609;28;20561;-47
2022/10/31 05:02:51;;;;;;;5.27;4.60;;;19.00;63.60;19.90;101208.00;;;;4990283;28;20230;-47
2022/10/31 05:05:19;;;;;;;6.87;4.63;;;18.90;63.40;19.90;101209.00;;;;5010976;28;20191;-47
2022/10/31 05:07:47;;;;;;;5.60;5.10;;;18.90;63.50;19.80;101211.00;;;;5011067;28;20196;-47
2022/10/31 05:10:16;;;;;;;6.20;4.93;;;18.80;63.60;19.80;101196.00;;;;5010239;28;20273;-47
2022/10/31 05:12:49;;;;;;;6.20;5.20;;;18.80;63.50;19.80;101191.00;;;;5010093;28;20203;-47
2022/10/31 05:15:15;;;;;;;5.87;5.27;;;18.80;63.50;19.80;101194.00;;;;5010281;28;20167;-47
2022/10/31 05:17:41;;;;;;;7.97;5.53;;;18.90;63.60;19.80;101182.00;;;;5010310;28;20659;-47
2022/10/31 05:20:07;;;;;;;8.03;5.13;;;18.90;63.50;19.80;101181.00;;;;5010267;28;20180;-47
2022/10/31 05:22:32;;;;;;;5.40;4.90;;;18.80;63.30;19.80;101196.00;;;;5009645;28;20203;-47
2022/10/31 05:24:58;;;;;;;6.20;5.27;;;18.90;63.50;19.80;101156.00;;;;5009750;28;20190;-47
2022/10/31 05:27:24;;;;;;;6.83;5.27;;;18.90;63.50;19.80;101181.00;;;;5010042;28;20199;-46
2022/10/31 05:29:49;;;;;;;8.80;5.67;;;18.90;63.50;19.80;101190.00;;;;5010038;28;20172;-47
2022/10/31 05:32:15;;;;;;;8.03;5.90;;;18.90;63.60;19.80;101185.00;;;;5009129;28;20203;-47
2022/10/31 05:34:41;;;;;;;7.07;5.33;;;18.90;63.60;19.70;101179.00;;;;5009863;28;20167;-47
2022/10/31 05:37:07;;;;;;;8.60;5.80;;;18.80;63.50;19.70;101195.00;;;;5009782;28;20179;-47
2022/10/31 05:39:32;;;;;;;7.40;6.00;;;18.80;63.60;19.70;101178.00;;;;5009545;28;20179;-47
2022/10/31 05:41:58;;;;;;;8.03;6.30;;;18.80;63.60;19.70;101186.00;;;;5008376;28;20670;-47
2022/10/31 05:44:24;;;;;;;9.57;6.60;;;18.90;63.70;19.80;101186.00;;;;5009435;28;20175;-47
2022/10/31 05:46:50;;;;;;;9.47;6.30;;;18.80;63.70;19.70;101184.00;;;;5009739;28;20184;-47
2022/10/31 05:49:17;;;;;;;8.90;6.50;;;18.80;63.70;19.70;101186.00;;;;5009704;28;20633;-47
2022/10/31 05:51:42;;;;;;;8.47;6.90;;;18.80;63.70;19.70;101182.00;;;;5008922;28;20285;-47
2022/10/31 05:54:08;;;;;;;9.47;6.70;;;18.80;63.80;19.70;101183.00;;;;5010623;28;20247;-47
2022/10/31 05:56:34;;;;;;;9.73;7.47;;;18.80;63.70;19.70;101180.00;;;;5011797;28;20266;-47
2022/10/31 05:58:59;;;;;;;9.50;6.57;;;18.80;63.80;19.70;101183.00;;;;5010005;28;20790;-47
2022/10/31 06:01:25;;;;;;;10.60;7.20;;;18.80;63.80;19.70;101185.00;;;;5007950;28;20204;-46
2022/10/31 06:03:51;;;;;;;10.10;6.87;;;18.80;63.80;19.70;101189.00;;;;5008823;28;20211;-47
2022/10/31 06:06:17;;;;;;;9.07;6.77;;;18.70;63.80;19.70;101183.00;;;;5009026;28;20183;-46
2022/10/31 06:08:42;;;;;;;7.63;6.73;;;18.70;63.80;19.70;101190.00;;;;5008963;28;20226;-47
2022/10/31 06:11:08;;;;;;;10.40;7.40;;;18.70;63.80;19.60;101186.00;;;;5008818;28;20179;-46
2022/10/31 06:13:34;;;;;;;9.37;7.60;;;18.80;63.90;19.60;101183.00;;;;5008865;28;20175;-46
2022/10/31 06:15:59;;;;;;;8.53;7.03;;;18.70;63.80;19.60;101184.00;;;;5008765;28;20164;-47
2022/10/31 06:18:25;;;;;;;8.47;6.90;;;18.70;63.80;19.60;101176.00;;;;5007516;28;20176;-46
2022/10/31 06:20:51;;;;;;;12.20;6.90;;;18.70;63.80;19.60;101177.00;;;;5007078;28;20168;-47
2022/10/31 06:23:17;;;;;;;7.93;6.77;;;18.70;63.80;19.60;101168.00;;;;5003096;28;20789;-47
2022/10/31 06:25:42;;;;;;;8.20;6.40;;;18.70;63.90;19.60;101179.00;;;;5006476;28;20183;-47
2022/10/31 06:28:08;;;;;;;7.40;6.50;;;18.60;63.70;19.60;101167.00;;;;5006164;28;20208;-46
2022/10/31 06:30:34;;;;;;;7.77;6.53;;;18.60;63.70;19.60;101174.00;;;;5007974;28;20191;-48
2022/10/31 06:33:03;;;;;;;8.70;6.70;;;18.60;63.80;19.60;101177.00;;;;5008426;28;20202;-47
2022/10/31 06:35:29;;;;;;;8.73;7.10;;;18.50;63.80;19.50;101179.00;;;;4992033;28;20207;-46
2022/10/31 06:37:55;;;;;;;8.57;6.60;;;18.40;64.00;19.50;101187.00;;;;5009220;28;20175;-47
2022/10/31 06:40:21;;;;;;;8.67;6.73;;;18.40;64.10;19.50;101192.00;;;;5009656;28;20175;-46
2022/10/31 06:42:46;;;;;;;7.07;6.37;;;18.50;64.10;19.50;101182.00;;;;5008374;28;20269;-46
2022/10/31 06:45:12;;;;;;;7.63;6.87;;;18.50;63.90;19.50;101190.00;;;;5009184;28;20598;-45
2022/10/31 06:47:38;;;;;;;7.33;6.23;;;18.50;63.90;19.50;101172.00;;;;5008676;28;20207;-46
2022/10/31 06:50:04;;;;;;;9.03;6.47;;;18.40;64.00;19.50;101183.00;;;;5008916;28;20211;-47
2022/10/31 06:52:30;;;;;;;7.57;6.63;;;18.50;63.90;19.50;101179.00;;;;5007968;28;20242;-48
2022/10/31 06:54:56;;;;;;;8.07;6.37;;;18.40;63.80;19.50;101191.00;;;;5008670;28;20191;-45
2022/10/31 06:57:21;;;;;;;8.57;6.30;;;18.40;64.00;19.40;101187.00;;;;5009000;28;20183;-46
2022/10/31 06:59:47;;;;;;;6.90;6.20;;;18.30;64.00;19.00;101182.00;;;;5009096;28;20184;-46
2022/10/31 07:02:13;;;;;;;9.20;6.37;;;18.30;64.10;19.40;101183.00;;;;5008699;28;20202;-46
2022/10/31 07:04:39;;;;;;;7.77;5.67;;;18.30;64.10;19.40;101177.00;;;;5008744;28;20549;-46
2022/10/31 07:07:04;;;;;;;8.37;6.37;;;18.40;64.00;19.40;101181.00;;;;5008951;28;20644;-46
2022/10/31 07:09:30;;;;;;;7.77;6.10;;;18.40;63.90;19.40;101188.00;;;;5008638;28;20545;-47
2022/10/31 07:11:56;;;;;;;8.77;6.37;;;18.40;63.90;19.40;101185.00;;;;5008061;28;20203;-47
2022/10/31 07:14:21;;;;;;;6.57;5.87;;;18.30;63.80;19.30;101174.00;;;;5008790;28;20164;-47
2022/10/31 07:16:50;;;;;;;8.40;5.80;;;18.30;64.00;19.30;101173.00;;;;5008663;28;20179;-46
2022/10/31 07:19:16;;;;;;;6.13;5.53;;;18.20;64.10;19.30;101185.00;;;;5008728;28;20191;-46
2022/10/31 07:21:42;;;;;;;6.17;5.57;;;18.20;64.20;19.30;101193.00;;;;5008416;28;20191;-46
2022/10/31 07:24:08;;;;;;;6.63;5.80;;;18.10;64.20;19.30;101180.00;;;;5009433;28;20258;-46
2022/10/31 07:26:33;;;;;;;8.47;5.73;;;18.10;64.30;19.30;101185.00;;;;5008507;28;20216;-46
2022/10/31 07:28:59;;;;;;;7.63;5.67;;;18.10;64.30;19.20;101192.00;;;;5008503;28;20245;-46
2022/10/31 07:31:25;;;;;;;7.27;5.70;;;18.20;64.30;19.20;101192.00;;;;5007757;28;20761;-46
2022/10/31 07:33:51;;;;;;;8.00;5.83;;;18.10;64.30;19.20;101193.00;;;;5008086;28;20203;-48
2022/10/31 07:36:16;;;;;;;6.70;5.10;;;18.10;64.40;19.20;101200.00;;;;5008285;28;20177;-46
2022/10/31 07:38:42;;;;;;;7.13;5.60;;;18.10;64.60;19.20;101210.00;;;;5009795;28;20225;-46
2022/10/31 07:41:09;;;;;;;6.23;5.63;;;18.10;64.60;19.20;101205.00;;;;5012763;28;20227;-46
2022/10/31 07:43:35;;;;;;;8.33;5.47;;;18.20;64.40;19.20;101205.00;;;;4995474;28;20167;-47
2022/10/31 07:46:01;;;;;;;7.17;5.40;;;18.20;64.30;19.20;101196.00;;;;5013177;28;20214;-47
2022/10/31 07:48:26;;;;;;;6.43;5.43;;;18.20;64.40;19.10;101215.00;;;;5012722;28;20206;-46
2022/10/31 07:50:52;;;;;;;6.10;5.43;;;18.20;64.40;19.10;101207.00;;;;5011420;28;20178;-46
2022/10/31 07:53:18;;;;;;;6.30;5.43;;;18.20;64.30;19.10;101210.00;;;;5011435;28;20195;-45
2022/10/31 07:55:43;;;;;;;7.20;5.03;;;18.20;64.20;19.20;101217.00;;;;5011870;28;20669;-46
2022/10/31 07:58:17;;;;;;;6.47;5.30;;;18.20;64.10;19.20;101217.00;;;;5011669;28;20309;-46
2022/10/31 08:00:44;;;;;;;8.97;5.60;;;18.20;64.10;19.20;101201.00;;;;4994957;28;20698;-45
2022/10/31 08:03:12;;;;;;;8.10;6.43;;;18.30;64.20;19.20;101204.00;;;;5011473;28;20199;-46
2022/10/31 08:05:39;;;;;;;6.47;5.70;;;18.20;64.20;19.20;101195.00;;;;4994203;28;20291;-47
2022/10/31 08:08:05;;;;;;;7.30;6.13;;;18.20;64.30;19.20;101198.00;;;;5011433;28;20776;-45
2022/10/31 08:10:31;;;;;;;9.10;5.97;;;18.20;64.40;19.20;101203.00;;;;5010752;28;20187;-46
2022/10/31 08:12:57;;;;;;;6.77;5.77;;;18.20;64.40;19.20;101197.00;;;;5010905;28;20727;-48
2022/10/31 08:15:22;;;;;;;7.73;6.07;;;18.20;64.40;19.20;101196.00;;;;5011366;28;20168;-46
2022/10/31 08:17:48;;;;;;;6.97;6.00;;;18.20;64.50;19.10;101202.00;;;;5011071;28;20175;-46
2022/10/31 08:20:14;;;;;;;7.90;5.77;;;18.20;64.50;19.10;101201.00;;;;5010016;28;20185;-47
2022/10/31 08:22:40;;;;;;;8.17;5.80;;;18.20;64.60;19.10;101200.00;;;;5010057;28;20195;-46
2022/10/31 08:25:06;;;;;;;9.67;6.17;;;18.20;64.70;19.10;101196.00;;;;5010715;28;20193;-46
2022/10/31 08:27:31;;;;;;;7.23;5.57;;;18.20;64.80;19.10;101195.00;;;;5011540;28;20707;-47
2022/10/31 08:29:58;;;;;;;9.30;5.63;;;18.20;64.70;19.10;101193.00;;;;5013447;28;20171;-46
2022/10/31 08:32:24;;;;;;;7.37;5.17;;;18.20;64.70;19.10;101190.00;;;;5016490;28;20275;-45
2022/10/31 08:34:50;;;;;;;6.10;5.17;;;18.20;64.60;19.10;101194.00;;;;4995523;28;20630;-46
2022/10/31 08:37:19;;;;;;;7.23;5.40;;;18.20;64.50;19.10;101187.00;;;;5011024;28;20226;-46
2022/10/31 08:39:48;;;;;;;7.30;5.70;;;18.20;64.70;19.10;101194.00;;;;5011184;28;20251;-46
2022/10/31 08:42:14;;;;;;;5.93;5.30;;;18.20;64.60;19.10;101194.00;;;;5011073;28;20192;-45
2022/10/31 08:44:40;;;;;;;7.27;4.80;;;18.30;64.70;19.10;101188.00;;;;5011451;28;20534;-46
2022/10/31 08:47:05;;;;;;;7.53;5.33;;;18.30;64.60;19.20;101180.00;;;;5010763;28;20172;-47
2022/10/31 08:49:31;;;;;;;7.87;5.33;;;18.30;64.70;19.20;101173.00;;;;5010946;28;20229;-46
2022/10/31 08:51:57;;;;;;;6.20;5.30;;;18.30;64.70;19.20;101171.00;;;;4954630;28;22435;-47
2022/10/31 08:54:23;;;;;;;7.10;4.97;;;18.30;64.70;19.20;101180.00;;;;5010030;28;20218;-46
2022/10/31 08:56:53;;;;;;;6.73;5.17;;;18.30;64.70;19.30;101169.00;;;;5010167;28;20508;-46
2022/10/31 08:59:19;;;;;;;6.87;4.50;;;18.30;64.80;19.30;101169.00;;;;5010263;28;20628;-47
2022/10/31 09:01:45;;;;;;;6.07;4.83;;;18.30;64.80;19.30;101167.00;;;;5009675;28;20194;-46
2022/10/31 09:04:10;;;;;;;9.17;4.90;;;18.30;64.80;19.30;101162.00;;;;4993041;28;20609;-47
2022/10/31 09:06:36;;;;;;;8.83;5.27;;;18.30;64.90;19.30;101159.00;;;;5010222;28;20172;-46
2022/10/31 09:09:02;;;;;;;5.80;4.70;;;18.30;64.90;19.30;101165.00;;;;5010095;28;20582;-47
2022/10/31 09:11:29;;;;;;;7.47;5.27;;;18.30;64.90;19.30;101159.00;;;;5010028;28;20191;-46
2022/10/31 09:13:55;;;;;;;5.90;5.13;;;18.30;64.90;19.30;101165.00;;;;4993050;28;20174;-44
2022/10/31 09:16:21;;;;;;;7.23;5.10;;;18.30;65.20;19.30;101167.00;;;;5009098;28;20199;-47
2022/10/31 09:18:47;;;;;;;6.10;5.30;;;18.30;65.20;19.30;101165.00;;;;5010330;28;20644;-49
2022/10/31 09:21:12;;;;;;;7.10;5.27;;;18.30;65.60;19.30;101166.00;;;;5009861;28;20652;-47
2022/10/31 09:23:38;;;;;;;7.13;5.13;;;18.30;65.80;19.30;101158.00;;;;5009909;28;20171;-49
2022/10/31 09:26:04;;;;;;;6.03;5.30;;;18.30;66.20;19.30;101155.00;;;;5010000;28;20183;-47
2022/10/31 09:28:31;;;;;;;6.67;5.13;;;18.30;66.40;19.30;101146.00;;;;4991802;28;20209;-48
2022/10/31 09:30:57;;;;;;;8.43;5.63;;;18.30;66.50;19.20;101148.00;;;;5008814;28;20188;-48
2022/10/31 09:33:22;;;;;;;9.10;5.53;;;18.30;67.40;19.20;101145.00;;;;5009320;28;20188;-48
2022/10/31 09:35:48;;;;;;;7.87;5.33;;;18.30;67.40;19.20;101141.00;;;;5009416;28;20172;-50
2022/10/31 09:38:19;;;;;;;10.93;5.33;;;18.30;67.40;19.30;101134.00;;;;5009674;28;20242;-48
2022/10/31 09:41:07;;;;;;;8.57;5.33;;;18.30;67.60;19.30;101133.00;;;;5009697;28;20159;-47
2022/10/31 09:43:53;;;;;;;10.30;5.40;;;18.30;67.60;19.30;101135.00;;;;4994403;28;20179;-47
2022/10/31 09:46:47;;;;;;;12.07;5.67;;;18.30;67.50;19.30;101134.00;;;;4994825;28;20662;-48
2022/10/31 09:49:25;;;;;;;8.70;5.43;;;18.30;67.30;19.20;101124.00;;;;4976125;28;20199;-48
2022/10/31 09:52:02;;;;;;;11.40;5.77;;;18.30;67.60;19.20;101120.00;;;;4963754;28;20199;-48
2022/10/31 09:54:38;;;;;;;9.70;6.17;;;18.30;67.50;19.20;101121.00;;;;5009200;28;20245;-48
2022/10/31 09:57:03;;;;;;;7.73;5.80;;;18.30;67.60;18.70;101109.00;;;;4976174;28;20179;-48
2022/10/31 09:59:39;;;;;;;10.10;5.90;;;18.30;68.10;19.20;101118.00;;;;4975622;28;20178;-48
2022/10/31 10:02:30;;;;;;;11.80;5.87;;;18.30;67.60;19.20;101110.00;;;;4975078;28;20202;-48
2022/10/31 10:05:11;;;;;;;6.37;5.40;;;18.30;67.60;19.20;101106.00;;;;4989093;28;20176;-48
2022/10/31 10:08:01;;;;;;;8.77;5.10;;;18.30;67.70;19.20;101096.00;;;;4991479;28;20198;-47
2022/10/31 10:10:44;;;;;;;8.17;5.70;;;18.30;67.70;19.20;101093.00;;;;5009213;28;20160;-47
2022/10/31 10:13:54;;;;;;;7.93;5.40;;;18.30;68.80;19.20;101070.00;;;;4991119;28;20254;-47
2022/10/31 10:16:50;;;;;;;7.17;5.97;;;18.20;68.00;19.20;101084.00;;;;5008483;28;20278;-48
2022/10/31 10:19:29;;;;;;;8.80;5.97;;;18.30;68.10;19.20;101086.00;;;;5009885;28;20658;-47
2022/10/31 10:22:29;;;;;;;10.13;6.30;;;18.30;68.20;19.20;101079.00;;;;4991991;28;20218;-47
2022/10/31 10:25:12;;;;;;;8.57;5.93;;;18.30;68.30;19.20;101043.00;;;;4991642;28;20160;-47
2022/10/31 10:28:06;;;;;;;9.63;6.43;;;18.30;68.30;19.20;101070.00;;;;4993014;28;20203;-47
2022/10/31 10:31:07;;;;;;;11.33;6.93;;;18.30;68.50;19.30;101075.00;;;;4991106;28;20175;-47
2022/10/31 10:33:36;;;;;;;9.43;6.73;;;18.30;68.90;19.20;101076.00;;;;4962538;28;20168;-48
2022/10/31 10:36:44;;;;;;;9.03;7.00;;;18.30;68.80;19.30;101064.00;;;;4976289;28;20771;-48
2022/10/31 10:39:23;;;;;;;9.33;6.30;;;18.40;68.80;19.30;101064.00;;;;4981565;28;20179;-49
2022/10/31 10:47:38;;;;;;;9.23;6.57;;;18.40;68.70;19.30;101029.00;;;;5009273;28;20215;-47
2022/10/31 10:50:15;;;;;;;9.83;6.30;;;18.40;68.90;19.40;101018.00;;;;4994555;28;20156;-48
2022/10/31 10:53:07;;;;;;;8.53;6.20;;;18.50;68.80;19.40;101007.00;;;;4991889;28;20563;-49
2022/10/31 10:56:18;;;;;;;8.33;6.13;;;18.50;69.90;19.40;101007.00;;;;4992742;28;20666;-47
2022/10/31 10:58:44;;;;;;;7.93;6.30;;;18.50;69.10;19.40;101010.00;;;;4978788;28;20167;-48
2022/10/31 11:01:12;;;;;;;8.83;6.17;;;18.50;69.50;19.40;101027.00;;;;4975658;28;20198;-49
2022/10/31 11:03:38;;;;;;;11.93;5.97;;;18.50;69.40;19.40;101007.00;;;;4992701;28;20194;-48
2022/10/31 11:06:04;;;;;;;7.63;6.27;;;18.50;69.30;19.40;101003.00;;;;4982321;28;20195;-48